Time;durP1;ratioP1;P1;durP2;ratioP2;P2;SDS_P1;SDS_P2;PMS_P1;PMS_P2;Temp;Humidity;BMP_temperature;BMP_pressure;BME280_temperature;BME280_humidity;BME280_pressure;Samples;Min_cycle;Max_cycle;Signal;HPM_P1;HPM_P2
2021/08/20 00:01:46;;;;;;;4.20;2.88;;;;;;;14.27;56.81;93553.53;5111076;28;20024;-40
2021/08/20 00:04:12;;;;;;;6.55;2.72;;;;;;;14.24;57.21;93558.19;5111004;28;20412;-40
2021/08/20 00:06:37;;;;;;;7.38;4.35;;;;;;;14.14;57.46;93556.63;5103175;28;20024;-41
2021/08/20 00:09:03;;;;;;;8.57;5.00;;;;;;;14.18;57.17;93554.16;5101622;28;20089;-40
2021/08/20 00:11:29;;;;;;;8.73;5.03;;;;;;;14.00;58.01;93556.19;5098622;28;20549;-40
2021/08/20 00:13:55;;;;;;;9.25;5.32;;;;;;;14.10;57.67;93557.00;5102491;28;20524;-40
2021/08/20 00:16:20;;;;;;;7.60;4.00;;;;;;;14.14;57.89;93551.78;5100103;28;20027;-40
2021/08/20 00:18:46;;;;;;;9.18;3.20;;;;;;;14.14;57.91;93553.84;5100445;28;20051;-40
2021/08/20 00:21:11;;;;;;;5.63;2.83;;;;;;;14.20;57.56;93555.06;5100091;28;20436;-41
2021/08/20 00:23:37;;;;;;;4.70;3.28;;;;;;;14.18;57.61;93551.41;5099442;28;20023;-40
2021/08/20 00:26:03;;;;;;;6.05;3.08;;;;;;;14.20;57.48;93551.56;5098820;28;20031;-40
2021/08/20 00:28:28;;;;;;;4.45;3.55;;;;;;;14.18;57.45;93548.63;5100677;28;20016;-40
2021/08/20 00:30:54;;;;;;;6.95;3.50;;;;;;;14.11;57.58;93552.19;5099254;28;20024;-40
2021/08/20 00:33:20;;;;;;;5.88;3.60;;;;;;;14.06;57.49;93551.13;5101785;28;20464;-40
2021/08/20 00:35:45;;;;;;;7.57;3.90;;;;;;;13.94;57.81;93544.59;5104525;28;20015;-40
2021/08/20 00:38:11;;;;;;;7.80;3.85;;;;;;;14.00;58.38;93558.97;5102540;28;20020;-40
2021/08/20 00:40:37;;;;;;;6.15;3.50;;;;;;;13.88;58.20;93560.00;5103263;28;20043;-40
2021/08/20 00:43:02;;;;;;;5.82;3.70;;;;;;;13.74;58.65;93547.69;5104178;28;20112;-40
2021/08/20 00:45:28;;;;;;;4.57;3.20;;;;;;;13.83;58.61;93549.84;5102136;28;20036;-40
2021/08/20 00:47:53;;;;;;;6.03;3.35;;;;;;;13.77;58.71;93543.81;5103777;28;20027;-39
2021/08/20 00:50:18;;;;;;;7.60;4.13;;;;;;;13.77;58.55;93538.25;5103662;28;20058;-39
2021/08/20 00:52:44;;;;;;;7.45;4.28;;;;;;;13.73;58.77;93526.81;5100756;28;20020;-39
2021/08/20 00:55:13;;;;;;;3.70;2.80;;;;;;;13.82;58.85;93545.63;5104101;28;20140;-39
2021/08/20 00:57:39;;;;;;;3.58;3.22;;;;;;;13.78;58.79;93542.47;5103088;28;20394;-39
2021/08/20 01:00:05;;;;;;;4.50;3.53;;;;;;;13.76;58.95;93542.31;5102116;28;20074;-39
2021/08/20 01:02:30;;;;;;;4.53;3.55;;;;;;;13.38;59.16;93496.19;5105157;28;20022;-40
2021/08/20 01:04:56;;;;;;;3.40;3.10;;;;;;;13.62;59.15;93531.50;5102345;28;20424;-40
2021/08/20 01:07:21;;;;;;;5.05;3.40;;;;;;;13.69;59.12;93533.50;5103235;28;20023;-40
2021/08/20 01:09:47;;;;;;;6.65;3.72;;;;;;;13.69;59.12;93533.50;5103361;28;20031;-40
2021/08/20 01:12:12;;;;;;;3.88;2.95;;;;;;;13.66;59.12;93528.34;5106356;28;20035;-41
2021/08/20 01:14:38;;;;;;;6.85;3.88;;;;;;;13.57;58.66;93540.81;5103345;28;20027;-41
2021/08/20 01:17:06;;;;;;;5.43;3.08;;;;;;;13.54;58.41;93538.41;5102443;28;20016;-39
2021/08/20 01:19:33;;;;;;;3.80;3.25;;;;;;;13.43;59.70;93539.59;5103245;28;20485;-39
2021/08/20 01:21:59;;;;;;;4.25;3.20;;;;;;;13.42;59.53;93532.59;5101433;28;20055;-40
2021/08/20 01:24:25;;;;;;;3.95;3.17;;;;;;;13.38;60.18;93535.00;5102667;28;20412;-40
2021/08/20 01:26:51;;;;;;;4.13;3.25;;;;;;;13.32;60.19;93542.81;5103383;28;20043;-40
2021/08/20 01:29:17;;;;;;;4.75;3.95;;;;;;;13.36;60.28;93542.44;5101291;28;20412;-41
2021/08/20 01:31:47;;;;;;;4.53;3.63;;;;;;;13.30;60.12;93542.66;5103077;28;20020;-40
2021/08/20 01:34:13;;;;;;;4.97;3.40;;;;;;;13.25;60.63;93537.34;5100760;28;20028;-41
2021/08/20 01:36:39;;;;;;;7.72;4.50;;;;;;;13.16;61.12;93538.69;5102486;28;20027;-41
2021/08/20 01:39:05;;;;;;;6.82;4.15;;;;;;;13.10;61.50;93542.97;5099786;28;20465;-40
2021/08/20 01:41:31;;;;;;;6.22;4.07;;;;;;;13.10;61.17;93543.72;5103374;28;20025;-40
2021/08/20 01:44:00;;;;;;;5.40;4.10;;;;;;;13.02;61.98;93536.69;5101355;28;20102;-40
2021/08/20 01:46:30;;;;;;;7.10;3.88;;;;;;;13.03;62.11;93530.59;5103209;28;20023;-40
2021/08/20 01:48:57;;;;;;;4.63;3.85;;;;;;;13.08;62.30;93535.19;5101064;28;20036;-40
2021/08/20 01:51:32;;;;;;;4.95;3.58;;;;;;;13.07;62.29;93536.50;5102222;28;20027;-40
2021/08/20 01:54:00;;;;;;;8.82;4.70;;;;;;;13.15;60.92;93536.44;5100526;28;20024;-41
2021/08/20 01:56:27;;;;;;;6.45;3.83;;;;;;;12.96;60.41;93539.69;5101434;28;20045;-40
2021/08/20 01:58:53;;;;;;;6.72;3.55;;;;;;;12.75;60.64;93522.59;5102760;28;20099;-41
2021/08/20 02:01:19;;;;;;;5.03;3.70;;;;;;;12.64;60.53;93504.38;5100918;28;20016;-41
2021/08/20 02:03:44;;;;;;;6.85;4.03;;;;;;;12.90;60.43;93536.38;5102422;28;20031;-40
2021/08/20 02:06:10;;;;;;;7.50;4.38;;;;;;;12.85;60.36;93534.56;5100317;28;20516;-40
2021/08/20 02:08:36;;;;;;;7.07;3.78;;;;;;;12.79;61.24;93536.81;5100188;28;20032;-41
2021/08/20 02:11:01;;;;;;;6.45;4.07;;;;;;;12.77;61.39;93537.38;5091766;28;20032;-41
2021/08/20 02:13:27;;;;;;;7.15;4.90;;;;;;;12.82;61.46;93535.69;5092160;28;20024;-40
2021/08/20 02:15:53;;;;;;;4.88;3.75;;;;;;;12.74;62.28;93532.22;5091736;28;20481;-40
2021/08/20 02:18:19;;;;;;;5.88;4.13;;;;;;;12.57;62.70;93509.94;5091745;28;20024;-39
2021/08/20 02:20:45;;;;;;;4.85;4.05;;;;;;;12.67;62.72;93521.88;5100192;28;20118;-40
2021/08/20 02:23:11;;;;;;;5.68;4.25;;;;;;;12.57;62.90;93529.31;5091676;28;20424;-40
2021/08/20 02:25:37;;;;;;;6.32;4.10;;;;;;;12.58;62.39;93533.59;5092847;28;20443;-41
2021/08/20 02:28:03;;;;;;;6.10;4.32;;;;;;;12.67;62.50;93530.94;5092182;28;20111;-41
2021/08/20 02:30:29;;;;;;;5.70;4.45;;;;;;;12.56;62.63;93520.28;5101447;28;20107;-40
2021/08/20 02:32:54;;;;;;;7.25;4.72;;;;;;;12.73;62.42;93537.00;5101844;28;20028;-41
2021/08/20 02:35:20;;;;;;;5.45;3.90;;;;;;;12.76;62.04;93537.91;5095260;28;20037;-41
2021/08/20 02:37:45;;;;;;;5.13;4.03;;;;;;;12.73;61.84;93541.84;5091584;28;20027;-41
2021/08/20 02:40:11;;;;;;;5.93;3.92;;;;;;;12.72;61.92;93549.41;5091576;28;20595;-41
2021/08/20 02:42:37;;;;;;;6.05;4.13;;;;;;;12.65;62.02;93535.56;5091402;28;20047;-41
2021/08/20 02:45:03;;;;;;;6.90;4.40;;;;;;;12.61;62.43;93543.53;5094022;28;20093;-41
2021/08/20 02:47:28;;;;;;;6.32;4.30;;;;;;;12.62;62.10;93539.47;5100138;28;20062;-41
2021/08/20 02:49:53;;;;;;;5.82;4.07;;;;;;;12.55;62.13;93535.44;5101133;28;20051;-41
2021/08/20 02:52:19;;;;;;;7.63;4.28;;;;;;;12.49;62.49;93542.47;5100245;28;20027;-41
2021/08/20 02:54:44;;;;;;;4.95;3.97;;;;;;;12.56;62.72;93538.94;5104916;28;20032;-42
2021/08/20 02:57:10;;;;;;;6.22;4.25;;;;;;;12.56;62.74;93534.13;5111130;28;20023;-43
2021/08/20 02:59:37;;;;;;;6.32;3.97;;;;;;;12.49;63.26;93536.94;5111381;28;20038;-41
2021/08/20 03:02:03;;;;;;;6.00;4.40;;;;;;;12.35;63.52;93522.56;5101841;27;20102;-41
2021/08/20 03:04:29;;;;;;;5.85;4.13;;;;;;;12.40;63.39;93535.47;5101881;28;20034;-41
2021/08/20 03:06:55;;;;;;;7.75;4.38;;;;;;;12.50;62.71;93539.13;5102299;28;20035;-41
2021/08/20 03:09:20;;;;;;;6.25;4.18;;;;;;;12.46;62.75;93541.56;5101294;28;20562;-41
2021/08/20 03:11:47;;;;;;;4.90;3.75;;;;;;;12.47;62.87;93531.22;5100759;28;20077;-41
2021/08/20 03:14:13;;;;;;;6.32;3.97;;;;;;;12.39;63.01;93549.91;5097746;27;20084;-41
2021/08/20 03:16:38;;;;;;;5.00;3.92;;;;;;;12.36;63.10;93551.75;5103855;28;20055;-41
2021/08/20 03:19:04;;;;;;;11.85;4.65;;;;;;;12.30;63.64;93544.94;5108803;28;20462;-40
2021/08/20 03:21:30;;;;;;;9.80;4.88;;;;;;;12.26;64.21;93548.06;5107802;28;20039;-40
2021/08/20 03:23:56;;;;;;;7.95;4.47;;;;;;;12.23;64.41;93545.69;5110172;28;20029;-40
2021/08/20 03:26:22;;;;;;;9.07;5.65;;;;;;;12.14;64.36;93549.75;5110552;28;20031;-40
2021/08/20 03:28:48;;;;;;;6.80;5.13;;;;;;;12.09;64.66;93551.44;5110541;28;20116;-41
2021/08/20 03:31:13;;;;;;;6.95;4.93;;;;;;;12.14;64.17;93556.03;5110411;28;20484;-41
2021/08/20 03:33:39;;;;;;;6.65;5.40;;;;;;;12.08;64.56;93552.69;5110545;28;20500;-40
2021/08/20 03:36:04;;;;;;;7.97;5.70;;;;;;;12.10;64.52;93566.00;5110509;28;20062;-41
2021/08/20 03:38:29;;;;;;;7.53;5.43;;;;;;;12.06;64.25;93569.13;5110996;28;20043;-40
2021/08/20 03:40:55;;;;;;;8.65;5.65;;;;;;;12.04;64.48;93574.47;5110786;28;20035;-41
2021/08/20 03:43:20;;;;;;;6.43;4.85;;;;;;;12.05;64.71;93569.69;5110563;28;20027;-41
2021/08/20 03:45:46;;;;;;;6.95;5.40;;;;;;;12.11;64.30;93575.78;5110607;28;20059;-41
2021/08/20 03:48:11;;;;;;;10.32;6.53;;;;;;;12.10;64.75;93580.59;5110354;28;20035;-41
2021/08/20 03:50:36;;;;;;;7.80;5.40;;;;;;;12.22;64.15;93575.38;5109429;28;20031;-41
2021/08/20 03:53:02;;;;;;;9.38;5.57;;;;;;;12.26;63.37;93577.78;5110551;28;20016;-41
2021/08/20 03:55:28;;;;;;;7.60;5.10;;;;;;;12.41;62.54;93581.25;5097586;28;20546;-45
2021/08/20 03:57:53;;;;;;;9.23;4.82;;;;;;;12.44;61.52;93584.94;5089986;28;20020;-44
2021/08/20 04:00:19;;;;;;;6.95;4.63;;;;;;;12.45;61.70;93581.59;5090205;28;20031;-45
2021/08/20 04:02:45;;;;;;;9.48;4.93;;;;;;;12.49;61.86;93584.00;5097486;28;20070;-40
2021/08/20 04:05:10;;;;;;;12.02;6.05;;;;;;;12.53;61.63;93585.09;5100653;28;20036;-41
2021/08/20 04:07:36;;;;;;;17.52;6.45;;;;;;;12.59;60.90;93582.13;5098505;28;20107;-41
2021/08/20 04:10:01;;;;;;;13.00;5.60;;;;;;;12.61;60.95;93587.84;5099998;28;20020;-40
2021/08/20 04:12:27;;;;;;;10.75;5.97;;;;;;;12.51;60.07;93578.66;5101825;28;20020;-40
2021/08/20 04:14:52;;;;;;;15.40;7.45;;;;;;;12.49;60.35;93593.06;5104340;28;20031;-41
2021/08/20 04:17:18;;;;;;;13.60;6.88;;;;;;;12.45;60.66;93587.13;5109572;28;20022;-41
2021/08/20 04:19:43;;;;;;;14.05;7.18;;;;;;;12.43;61.42;93594.56;5106351;28;20023;-40
2021/08/20 04:22:09;;;;;;;12.70;5.93;;;;;;;12.46;61.84;93587.88;5109325;28;20047;-41
2021/08/20 04:24:34;;;;;;;10.35;6.07;;;;;;;12.52;61.61;93591.94;5104333;28;20019;-41
2021/08/20 04:26:59;;;;;;;11.30;6.15;;;;;;;12.46;61.73;93588.63;5099043;28;20031;-41
2021/08/20 04:29:25;;;;;;;10.38;6.03;;;;;;;12.56;62.13;93591.56;5098697;28;20035;-41
2021/08/20 04:31:50;;;;;;;11.63;5.82;;;;;;;12.60;61.73;93589.16;5099334;28;20024;-40
2021/08/20 04:34:16;;;;;;;12.30;5.75;;;;;;;12.68;61.95;93579.53;5100518;28;20020;-40
2021/08/20 04:36:41;;;;;;;9.57;5.63;;;;;;;12.71;61.92;93585.97;5098020;28;20024;-42
2021/08/20 04:39:07;;;;;;;12.65;5.65;;;;;;;12.79;62.12;93581.13;5100578;28;20404;-43
2021/08/20 04:41:32;;;;;;;8.90;5.53;;;;;;;12.85;62.33;93579.63;5100574;28;20035;-41
2021/08/20 04:43:58;;;;;;;14.23;5.88;;;;;;;12.87;62.76;93590.16;5098422;28;20440;-41
2021/08/20 04:46:24;;;;;;;11.65;5.78;;;;;;;12.96;62.98;93589.56;5089991;28;20085;-45
2021/08/20 04:48:50;;;;;;;16.58;6.82;;;;;;;12.93;62.34;93590.69;5089684;28;20024;-42
2021/08/20 04:51:15;;;;;;;14.43;10.88;;;;;;;12.99;62.36;93596.75;5103100;28;20084;-43
2021/08/20 04:53:41;;;;;;;11.13;9.40;;;;;;;13.05;62.35;93596.56;5104235;28;20538;-39
2021/08/20 04:56:06;;;;;;;12.38;8.63;;;;;;;13.07;62.38;93602.28;5109682;28;20499;-41
2021/08/20 04:58:32;;;;;;;13.38;8.07;;;;;;;13.16;61.78;93596.91;5109417;28;20031;-40
2021/08/20 05:00:58;;;;;;;10.70;7.30;;;;;;;13.22;61.99;93591.13;5095239;28;20023;-40
2021/08/20 05:03:24;;;;;;;24.13;8.48;;;;;;;13.28;62.42;93588.88;5107989;28;20031;-40
2021/08/20 05:05:49;;;;;;;12.68;7.45;;;;;;;13.41;62.87;93599.72;5109433;28;20027;-40
2021/08/20 05:08:15;;;;;;;9.73;7.55;;;;;;;13.55;62.17;93601.66;5101272;28;20034;-39
2021/08/20 06:03:26;;;;;;;7.25;5.55;;;;;;;15.80;62.66;93602.66;5119401;27;20980;-39
2021/08/20 06:05:51;;;;;;;9.88;5.07;;;;;;;15.97;62.39;93607.41;5117942;27;20118;-41
2021/08/20 06:08:17;;;;;;;15.55;5.60;;;;;;;16.17;61.87;93606.16;5118304;28;20019;-40
2021/08/20 06:10:44;;;;;;;9.35;5.88;;;;;;;16.27;61.64;93604.13;5121777;27;20049;-40
2021/08/20 06:13:13;;;;;;;10.55;5.60;;;;;;;16.40;62.53;93598.16;5118033;27;20031;-41
2021/08/20 06:15:38;;;;;;;8.20;5.78;;;;;;;16.58;62.64;93596.75;5118708;28;20028;-40
2021/08/20 06:18:04;;;;;;;9.02;4.97;;;;;;;16.81;61.33;93596.31;5116675;27;20460;-40
2021/08/20 06:20:30;;;;;;;6.05;4.88;;;;;;;17.13;61.22;93597.97;5118157;27;20528;-41
2021/08/20 06:22:55;;;;;;;6.90;5.38;;;;;;;17.39;60.07;93585.84;5118060;28;20488;-40
2021/08/20 06:25:21;;;;;;;6.72;4.72;;;;;;;17.52;59.54;93593.78;5116580;27;20451;-40
2021/08/20 06:27:46;;;;;;;5.80;5.05;;;;;;;17.76;58.91;93601.09;5116413;27;20024;-40
2021/08/20 06:30:12;;;;;;;6.70;4.68;;;;;;;17.94;57.00;93599.56;5117743;27;20054;-40
2021/08/20 06:32:37;;;;;;;7.38;4.70;;;;;;;18.18;56.55;93604.03;5120880;28;20050;-40
2021/08/20 06:35:03;;;;;;;6.20;4.80;;;;;;;18.35;57.43;93603.06;5116389;27;20024;-40
2021/08/20 06:37:28;;;;;;;6.57;5.18;;;;;;;18.38;57.14;93601.88;5120810;27;20567;-40
2021/08/20 06:39:54;;;;;;;5.78;4.45;;;;;;;18.42;56.86;93602.16;5117203;27;20023;-40
2021/08/20 06:42:21;;;;;;;7.20;4.65;;;;;;;18.59;57.06;93596.34;5116559;28;20039;-40
2021/08/20 06:44:47;;;;;;;7.30;4.90;;;;;;;18.68;56.70;93598.34;5116074;28;20504;-40
2021/08/20 06:47:13;;;;;;;23.42;6.03;;;;;;;18.72;56.38;93587.41;5117363;27;20022;-40
2021/08/20 06:49:38;;;;;;;11.57;4.50;;;;;;;18.87;55.36;93589.81;5117877;28;20020;-39
2021/08/20 06:52:04;;;;;;;8.23;4.45;;;;;;;19.05;56.82;93583.94;5115512;27;20443;-40
2021/08/20 06:54:30;;;;;;;8.63;4.45;;;;;;;19.23;55.84;93587.91;5117560;27;20015;-40
2021/08/20 06:56:55;;;;;;;7.88;4.80;;;;;;;19.49;52.71;93590.31;5117368;28;20496;-39
2021/08/20 06:59:20;;;;;;;5.97;4.18;;;;;;;19.62;52.23;93589.06;5116003;27;20662;-41
2021/08/20 07:01:46;;;;;;;4.35;3.95;;;;;;;19.73;52.15;93588.31;5114556;28;20512;-39
2021/08/20 07:04:11;;;;;;;12.05;4.72;;;;;;;19.84;51.90;93581.28;5103640;27;20024;-39
2021/08/20 07:06:37;;;;;;;10.40;4.43;;;;;;;19.95;51.36;93580.56;5106085;28;20034;-39
2021/08/20 07:09:02;;;;;;;7.15;4.60;;;;;;;20.04;50.81;93579.72;5104129;28;20016;-40
2021/08/20 07:11:28;;;;;;;6.35;4.35;;;;;;;20.18;50.34;93591.81;5102390;28;20015;-39
2021/08/20 07:13:53;;;;;;;5.95;4.13;;;;;;;20.30;50.16;93586.94;5103080;28;20032;-40
2021/08/20 07:16:19;;;;;;;5.90;3.80;;;;;;;20.44;51.39;93584.28;5102364;28;20028;-40
2021/08/20 07:18:44;;;;;;;6.55;4.30;;;;;;;20.47;49.80;93585.84;5102671;28;20024;-40
2021/08/20 07:21:10;;;;;;;7.85;3.60;;;;;;;20.59;49.38;93592.91;5104690;28;20023;-41
2021/08/20 07:23:35;;;;;;;6.63;4.50;;;;;;;20.86;49.59;93586.75;5102614;28;20045;-40
2021/08/20 07:26:03;;;;;;;4.03;3.60;;;;;;;21.50;48.36;93593.28;5103906;28;20657;-40
2021/08/20 07:28:29;;;;;;;6.35;4.35;;;;;;;22.00;46.04;93594.63;5101899;28;20484;-39
2021/08/20 07:30:55;;;;;;;4.68;3.13;;;;;;;22.54;44.55;93597.53;5102453;28;20027;-41
2021/08/20 07:33:21;;;;;;;5.35;3.72;;;;;;;23.23;42.94;93601.78;5103195;28;20103;-40
2021/08/20 07:35:46;;;;;;;3.50;3.20;;;;;;;23.49;42.51;93594.63;5107131;28;20119;-43
2021/08/20 07:38:12;;;;;;;5.05;3.60;;;;;;;24.31;41.61;93599.91;5104612;28;20016;-40
2021/08/20 07:40:37;;;;;;;3.42;3.05;;;;;;;25.54;37.96;93592.63;5104422;28;20051;-40
2021/08/20 07:43:03;;;;;;;7.75;4.25;;;;;;;26.25;37.30;93595.44;5106598;28;20012;-40
2021/08/20 07:45:29;;;;;;;4.80;3.42;;;;;;;27.03;34.16;93587.03;5102627;28;20057;-42
2021/08/20 07:47:55;;;;;;;4.07;3.60;;;;;;;28.04;33.13;93575.50;5101254;27;20059;-42
2021/08/20 07:50:21;;;;;;;4.10;3.70;;;;;;;28.68;31.89;93588.09;5099619;28;20030;-41
2021/08/20 07:52:47;;;;;;;3.90;3.30;;;;;;;30.41;28.35;93584.81;5098739;28;20438;-41
2021/08/20 07:55:13;;;;;;;8.38;3.47;;;;;;;30.73;27.56;93588.34;5100060;28;20023;-41
2021/08/20 07:57:49;;;;;;;720.92;243.05;;;;;;;28.46;31.56;93586.03;5102243;28;20055;-40
2021/08/20 08:00:24;;;;;;;718.17;278.80;;;;;;;29.54;29.47;93584.09;5101531;28;20102;-41
2021/08/20 08:02:50;;;;;;;1179.38;420.33;;;;;;;30.01;28.99;93583.88;5097773;28;20157;-40
2021/08/20 08:05:15;;;;;;;1999.90;999.90;;;;;;;30.46;28.55;93574.22;5099606;28;20143;-41
2021/08/20 08:07:41;;;;;;;1999.90;999.90;;;;;;;31.05;27.20;93573.34;5103718;28;20723;-40
2021/08/20 08:10:06;;;;;;;1999.90;999.90;;;;;;;32.82;25.46;93584.88;5100723;28;20024;-41
2021/08/20 08:12:32;;;;;;;4.13;3.30;;;;;;;33.22;24.15;93584.69;5102185;28;20015;-41
2021/08/20 08:14:57;;;;;;;4.43;3.45;;;;;;;32.87;24.42;93586.38;5101524;28;20416;-42
2021/08/20 08:17:23;;;;;;;4.30;3.38;;;;;;;33.88;24.35;93579.66;5100472;28;20020;-41
2021/08/20 08:19:49;;;;;;;7.35;3.63;;;;;;;34.60;22.38;93578.81;5102282;27;20018;-41
2021/08/20 08:22:14;;;;;;;15.15;3.88;;;;;;;36.01;21.63;93576.47;5101394;28;20024;-41
2021/08/20 08:24:40;;;;;;;3.50;3.20;;;;;;;35.65;20.35;93589.31;5100716;28;20023;-41
2021/08/20 08:27:05;;;;;;;3.67;2.97;;;;;;;34.45;21.42;93592.31;5102396;28;20050;-42
2021/08/20 08:29:31;;;;;;;4.78;3.58;;;;;;;32.82;24.23;93582.03;5101304;28;20107;-41
2021/08/20 08:31:56;;;;;;;4.25;3.85;;;;;;;34.00;23.71;93590.50;5100826;28;20385;-42
2021/08/20 08:34:22;;;;;;;5.57;4.10;;;;;;;34.91;21.58;93589.72;5102533;28;20023;-41
2021/08/20 08:36:47;;;;;;;10.90;4.45;;;;;;;34.58;22.10;93588.13;5100623;28;20020;-41
2021/08/20 08:39:13;;;;;;;4.57;3.97;;;;;;;35.61;20.46;93583.56;5101306;28;20023;-41
2021/08/20 08:41:38;;;;;;;4.07;3.15;;;;;;;36.66;18.75;93585.78;5102114;28;20016;-41
2021/08/20 08:44:04;;;;;;;3.97;3.67;;;;;;;34.71;21.42;93574.56;5100203;28;20020;-41
2021/08/20 08:46:36;;;;;;;4.97;3.55;;;;;;;34.61;21.64;93578.09;5101566;28;20019;-43
2021/08/20 08:49:03;;;;;;;3.42;3.03;;;;;;;34.52;21.73;93570.16;5102094;28;20523;-42
2021/08/20 08:51:28;;;;;;;5.90;4.18;;;;;;;34.37;21.88;93568.59;5099202;28;20125;-42
2021/08/20 08:53:54;;;;;;;4.00;3.65;;;;;;;34.65;21.88;93571.66;5100932;28;20516;-41
2021/08/20 08:56:20;;;;;;;4.43;3.47;;;;;;;34.38;21.98;93562.16;5101382;28;20023;-41
2021/08/20 08:58:46;;;;;;;4.45;4.05;;;;;;;35.51;20.99;93562.72;5102211;28;20043;-42
2021/08/20 09:01:27;;;;;;;3.65;3.35;;;;;;;36.58;19.42;93566.38;5105287;28;20022;-41
2021/08/20 09:04:13;;;;;;;4.78;3.58;;;;;;;36.27;21.13;93562.09;5110747;28;20093;-41
2021/08/20 09:06:45;;;;;;;7.00;3.90;;;;;;;36.04;21.38;93560.69;5110151;28;20065;-41
2021/08/20 09:09:13;;;;;;;44.97;7.47;;;;;;;37.18;19.07;93560.47;5110966;28;20381;-42
2021/08/20 09:11:39;;;;;;;4.87;3.20;;;;;;;37.75;19.44;93560.19;5111120;28;20591;-43
2021/08/20 09:14:06;;;;;;;3.67;3.38;;;;;;;38.24;18.71;93567.06;5111340;28;20433;-42
2021/08/20 09:16:42;;;;;;;7.07;3.53;;;;;;;38.33;17.89;93548.25;5111238;28;20039;-42
2021/08/20 09:19:16;;;;;;;9.80;3.80;;;;;;;38.92;18.46;93568.59;5109575;28;20074;-42
2021/08/20 09:21:47;;;;;;;5.25;3.30;;;;;;;38.42;17.52;93561.16;5095780;28;20046;-42
2021/08/20 09:24:35;;;;;;;7.35;3.85;;;;;;;39.04;16.96;93556.94;5087771;28;20058;-42
2021/08/20 09:27:29;;;;;;;6.82;3.63;;;;;;;40.11;16.47;93558.44;5089675;28;20024;-44
2021/08/20 09:30:12;;;;;;;;;;;;;;;41.32;14.38;93553.41;5048562;28;20029;-42
2021/08/20 09:32:45;;;;;;;9.48;3.60;;;;;;;40.97;14.84;93555.53;5090746;28;19935;-43
2021/08/20 09:35:11;;;;;;;4.43;3.05;;;;;;;41.08;15.00;93556.75;5090835;28;20539;-42
2021/08/20 09:37:36;;;;;;;4.43;3.47;;;;;;;40.75;15.24;93542.16;5090410;28;20027;-42
2021/08/20 09:40:08;;;;;;;4.30;3.85;;;;;;;41.45;14.70;93555.28;5090437;28;20028;-43
2021/08/20 09:42:34;;;;;;;4.40;3.67;;;;;;;41.33;14.33;93538.16;5090578;28;20069;-43
2021/08/20 09:45:20;;;;;;;4.57;3.88;;;;;;;40.74;14.82;93543.63;5090765;28;20028;-42
2021/08/20 09:47:50;;;;;;;6.55;4.80;;;;;;;40.87;14.60;93536.13;5090238;28;20035;-43
2021/08/20 09:50:16;;;;;;;5.07;3.40;;;;;;;40.57;15.32;93533.78;5090653;28;20032;-42
2021/08/20 09:52:42;;;;;;;17.25;4.55;;;;;;;38.63;17.04;93542.19;5095744;28;20015;-43
2021/08/20 09:55:07;;;;;;;5.95;4.28;;;;;;;37.36;17.98;93544.59;5110855;28;20495;-43
2021/08/20 09:57:36;;;;;;;5.95;4.15;;;;;;;37.21;18.22;93538.84;5110584;28;20400;-42
2021/08/20 10:00:03;;;;;;;5.68;4.63;;;;;;;37.20;18.96;93533.84;5105521;28;20090;-43
2021/08/20 10:02:29;;;;;;;4.55;4.15;;;;;;;38.09;17.65;93536.19;5090055;28;20059;-42
2021/08/20 10:04:58;;;;;;;5.07;4.03;;;;;;;37.39;17.53;93525.84;5090138;28;20516;-41
2021/08/20 10:07:27;;;;;;;4.75;4.18;;;;;;;38.32;17.95;93532.41;5090096;28;20023;-43
2021/08/20 10:09:59;;;;;;;4.35;3.95;;;;;;;38.80;16.83;93530.50;5090100;28;20027;-42
2021/08/20 10:12:25;;;;;;;4.32;3.75;;;;;;;38.24;16.75;93525.97;5090345;28;20423;-42
2021/08/20 10:14:52;;;;;;;5.57;4.15;;;;;;;37.39;18.65;93528.72;5090385;28;20036;-42
2021/08/20 10:17:18;;;;;;;4.85;4.45;;;;;;;37.36;18.37;93525.13;5090335;28;20044;-43
2021/08/20 10:19:45;;;;;;;4.63;4.13;;;;;;;36.38;19.30;93514.63;5091052;28;20031;-45
2021/08/20 10:22:11;;;;;;;5.47;3.95;;;;;;;35.02;20.42;93522.38;5102508;28;20102;-42
2021/08/20 10:24:37;;;;;;;4.72;4.28;;;;;;;32.98;22.24;93524.28;5105285;28;20099;-41
2021/08/20 10:27:05;;;;;;;5.85;5.35;;;;;;;32.03;24.37;93525.88;5108591;28;20032;-42
2021/08/20 10:29:33;;;;;;;6.23;4.27;;;;;;;31.77;24.75;93511.88;5098330;28;20030;-43
2021/08/20 10:32:02;;;;;;;4.63;4.13;;;;;;;31.62;24.68;93527.31;5097339;28;20039;-41
2021/08/20 10:34:33;;;;;;;5.10;4.65;;;;;;;31.81;25.25;93526.22;5102764;28;20110;-42
2021/08/20 10:37:09;;;;;;;4.43;4.03;;;;;;;32.92;24.43;93525.66;5106576;28;20063;-42
2021/08/20 10:39:35;;;;;;;4.50;4.10;;;;;;;34.68;21.83;93527.22;5107903;28;20028;-43
2021/08/20 10:42:02;;;;;;;157.73;14.15;;;;;;;35.65;20.25;93514.63;5112256;28;20480;-43
2021/08/20 10:44:33;;;;;;;4.68;4.03;;;;;;;36.07;19.60;93519.69;5092345;28;20567;-42
2021/08/20 10:46:59;;;;;;;5.47;4.05;;;;;;;36.19;18.88;93513.94;5109180;28;20113;-43
2021/08/20 10:49:25;;;;;;;5.70;3.67;;;;;;;37.10;18.50;93511.56;5110467;28;20534;-42
2021/08/20 10:51:55;;;;;;;3.65;3.35;;;;;;;37.04;18.43;93510.88;5111711;28;20458;-43
2021/08/20 10:54:33;;;;;;;4.43;3.78;;;;;;;37.07;18.96;93500.78;5111711;28;20076;-42
2021/08/20 10:57:02;;;;;;;4.63;3.70;;;;;;;37.25;18.51;93501.41;5111405;28;20106;-42
2021/08/20 10:59:46;;;;;;;4.65;4.10;;;;;;;36.89;18.77;93498.69;5111072;28;20484;-43
2021/08/20 11:02:28;;;;;;;4.10;3.75;;;;;;;36.24;19.75;93503.16;5100496;28;20440;-43
2021/08/20 11:04:57;;;;;;;5.60;4.43;;;;;;;36.01;19.44;93493.84;5099028;28;20028;-42
2021/08/20 11:07:37;;;;;;;5.90;4.20;;;;;;;35.19;19.95;93494.44;5099514;27;20104;-44
2021/08/20 11:10:09;;;;;;;9.05;4.50;;;;;;;34.52;21.41;93489.88;5100167;28;20035;-42
2021/08/20 11:12:37;;;;;;;5.15;4.60;;;;;;;33.48;22.02;93494.06;5099013;28;20031;-42
2021/08/20 11:15:18;;;;;;;7.00;4.68;;;;;;;33.94;22.53;93487.31;5102352;28;20032;-43
2021/08/20 11:17:49;;;;;;;4.20;3.78;;;;;;;34.41;22.25;93491.94;5099992;28;20038;-42
2021/08/20 11:20:26;;;;;;;6.45;4.53;;;;;;;33.22;22.27;93490.97;5098906;28;20024;-42
2021/08/20 11:23:04;;;;;;;4.80;4.30;;;;;;;33.19;23.66;93486.66;5097850;28;20034;-41
2021/08/20 11:25:46;;;;;;;4.70;4.22;;;;;;;33.08;22.51;93484.38;5100290;28;20022;-42
2021/08/20 11:28:23;;;;;;;5.40;4.90;;;;;;;32.12;23.20;93473.88;5101061;28;20465;-43
2021/08/20 11:31:04;;;;;;;5.53;4.80;;;;;;;31.69;24.84;93482.47;5098569;27;20024;-42
2021/08/20 11:33:34;;;;;;;29.15;5.72;;;;;;;31.75;24.14;93474.00;5097957;28;20024;-42
2021/08/20 11:36:05;;;;;;;5.20;4.70;;;;;;;31.30;24.82;93481.81;5093531;28;20028;-42
2021/08/20 11:38:42;;;;;;;7.47;5.20;;;;;;;32.06;23.68;93479.50;5111007;28;20079;-41
2021/08/20 11:41:26;;;;;;;6.85;4.93;;;;;;;31.58;24.61;93473.03;5109971;28;20102;-42
2021/08/20 11:43:51;;;;;;;7.60;4.65;;;;;;;31.48;25.18;93466.44;5110661;28;20446;-42
2021/08/20 11:46:17;;;;;;;115.88;13.43;;;;;;;31.55;24.81;93465.84;5110380;27;20027;-42
2021/08/20 11:48:46;;;;;;;8.20;5.25;;;;;;;30.82;25.38;93474.50;5110286;28;20113;-42
2021/08/20 11:51:13;;;;;;;7.70;5.45;;;;;;;31.03;26.09;93468.50;5110321;28;20047;-42
2021/08/20 11:53:47;;;;;;;134.07;15.65;;;;;;;31.73;24.97;93468.28;5104027;28;20051;-43
2021/08/20 11:57:00;;;;;;;9.70;4.80;;;;;;;32.52;24.30;93462.28;5089689;28;20040;-42
2021/08/20 11:59:28;;;;;;;5.75;4.50;;;;;;;31.73;24.21;93460.41;5069573;28;20075;-43
2021/08/20 12:02:01;;;;;;;9.55;4.57;;;;;;;31.00;25.28;93447.06;5066848;28;20440;-42
2021/08/20 12:04:27;;;;;;;5.28;4.78;;;;;;;31.79;24.35;93451.97;5084409;28;20076;-43
2021/08/20 12:06:52;;;;;;;7.03;4.78;;;;;;;32.51;23.41;93449.38;5106284;28;20073;-43
2021/08/20 12:09:36;;;;;;;5.93;4.80;;;;;;;33.34;22.88;93442.44;5109348;28;20018;-43
2021/08/20 12:12:03;;;;;;;5.28;4.38;;;;;;;33.73;22.54;93439.88;5103900;28;20506;-44
2021/08/20 12:14:29;;;;;;;5.07;4.55;;;;;;;33.49;21.36;93434.66;5105288;28;20023;-44
2021/08/20 12:16:56;;;;;;;15.95;5.47;;;;;;;33.87;22.26;93440.00;5101419;28;20020;-45
2021/08/20 13:02:31;;;;;;;12.30;7.35;;;;;;;30.59;25.87;93394.28;5122398;27;20635;-42
2021/08/20 13:04:56;;;;;;;10.88;7.35;;;;;;;30.59;24.55;93397.13;5107297;28;20110;-43
2021/08/20 13:07:22;;;;;;;9.57;6.68;;;;;;;30.62;24.91;93389.34;5107679;28;20026;-44
2021/08/20 13:09:47;;;;;;;8.23;6.65;;;;;;;30.94;26.67;93392.06;5126289;28;20023;-46